Time;durP1;ratioP1;P1;durP2;ratioP2;P2;SDS_P1;SDS_P2;PMS_P1;PMS_P2;Temp;Humidity;BMP_temperature;BMP_pressure;BME280_temperature;BME280_humidity;BME280_pressure;Samples;Min_cycle;Max_cycle;Signal;HPM_P1;HPM_P2
2022/04/30 00:02:17;;;;;;;4.17;3.77;;;12.50;44.70;;;;;;5264699;28;20181;-49
2022/04/30 00:04:48;;;;;;;4.17;3.40;;;12.50;44.80;;;;;;5260071;28;20250;-49
2022/04/30 00:07:20;;;;;;;3.70;3.37;;;12.40;45.00;;;;;;5260899;28;21063;-50
2022/04/30 00:09:50;;;;;;;9.53;4.20;;;12.40;45.10;;;;;;5258224;28;20274;-48
2022/04/30 00:12:22;;;;;;;4.97;3.90;;;12.30;45.40;;;;;;5263127;28;20506;-49
2022/04/30 00:14:54;;;;;;;6.17;3.63;;;12.20;45.80;;;;;;5256128;28;20201;-50
2022/04/30 00:17:24;;;;;;;6.37;4.20;;;12.20;45.50;;;;;;5256494;28;20419;-51
2022/04/30 00:19:55;;;;;;;6.33;3.67;;;12.20;45.70;;;;;;5262079;28;20455;-48
2022/04/30 00:22:26;;;;;;;5.57;3.70;;;12.10;45.30;;;;;;5265308;28;20234;-48
2022/04/30 00:24:56;;;;;;;3.73;3.43;;;12.10;45.50;;;;;;5261436;28;20538;-48
2022/04/30 00:27:27;;;;;;;3.73;3.40;;;12.10;45.50;;;;;;5259007;28;20205;-50
2022/04/30 00:29:58;;;;;;;7.77;4.00;;;12.00;46.00;;;;;;5262083;28;20499;-49
2022/04/30 00:32:30;;;;;;;5.63;3.70;;;12.00;46.60;;;;;;5265248;28;20260;-50
2022/04/30 00:35:02;;;;;;;9.07;4.10;;;11.90;46.70;;;;;;5260080;28;20448;-49
2022/04/30 00:37:33;;;;;;;6.27;3.80;;;11.90;47.50;;;;;;5267585;28;20439;-48
2022/04/30 00:40:04;;;;;;;6.03;3.90;;;11.90;48.20;;;;;;5266951;28;20974;-47
2022/04/30 00:42:34;;;;;;;10.13;4.43;;;11.90;48.50;;;;;;5264070;28;20193;-51
2022/04/30 00:45:05;;;;;;;10.33;5.50;;;11.80;49.30;;;;;;5261442;28;20459;-49
2022/04/30 00:47:36;;;;;;;10.40;5.30;;;11.80;50.40;;;;;;5259231;28;20201;-47
2022/04/30 00:50:07;;;;;;;9.33;5.60;;;11.80;50.80;;;;;;5263102;28;20594;-51
2022/04/30 00:52:38;;;;;;;9.70;7.10;;;11.80;50.90;;;;;;5258535;28;20178;-48
2022/04/30 00:55:09;;;;;;;13.03;7.17;;;11.70;52.40;;;;;;5259966;28;20229;-48
2022/04/30 00:57:43;;;;;;;12.90;6.70;;;11.60;53.10;;;;;;5266811;28;20449;-50
2022/04/30 01:00:14;;;;;;;9.13;6.50;;;11.50;54.00;;;;;;5264676;28;20440;-50
2022/04/30 01:02:44;;;;;;;12.60;7.00;;;11.50;54.70;;;;;;5259858;28;20455;-50
2022/04/30 01:05:15;;;;;;;13.73;6.60;;;11.40;55.70;;;;;;5263053;28;20202;-53
2022/04/30 01:07:47;;;;;;;8.30;5.87;;;11.20;56.60;;;;;;5263915;28;20278;-50
2022/04/30 01:10:18;;;;;;;8.30;5.90;;;11.10;57.40;;;;;;5263144;28;20170;-48
2022/04/30 01:12:49;;;;;;;10.67;5.27;;;11.00;58.30;;;;;;5267232;28;20454;-48
2022/04/30 01:15:20;;;;;;;8.73;6.00;;;11.00;59.20;;;;;;5253156;28;20295;-49
2022/04/30 01:17:51;;;;;;;10.37;4.70;;;10.90;60.00;;;;;;5268299;28;20197;-48
2022/04/30 01:20:22;;;;;;;8.40;5.53;;;10.90;60.90;;;;;;5262151;28;20431;-48
2022/04/30 01:23:00;;;;;;;7.43;5.10;;;10.80;61.80;;;;;;5262367;28;20190;-48
2022/04/30 01:25:32;;;;;;;6.27;4.83;;;10.80;62.70;;;;;;5261867;28;20486;-51
2022/04/30 01:28:03;;;;;;;8.03;4.87;;;10.80;63.30;;;;;;5264550;28;20467;-48
2022/04/30 01:30:34;;;;;;;13.50;5.60;;;10.80;64.80;;;;;;5256506;28;20527;-46
2022/04/30 01:38:43;;;;;;;7.93;5.23;;;10.70;68.10;;;;;;5260587;28;20490;-49
2022/04/30 01:41:13;;;;;;;7.50;5.00;;;10.60;68.70;;;;;;5264837;28;20531;-48
2022/04/30 01:43:44;;;;;;;5.93;5.10;;;10.60;69.80;;;;;;5263300;28;20212;-51
2022/04/30 01:46:15;;;;;;;11.53;4.80;;;10.50;70.20;;;;;;5258541;28;20213;-50
2022/04/30 01:48:46;;;;;;;8.27;4.57;;;10.50;71.60;;;;;;5263974;28;20205;-48
2022/04/30 01:51:17;;;;;;;9.70;5.30;;;10.50;72.60;;;;;;5245900;28;20669;-49
2022/04/30 01:53:47;;;;;;;11.80;6.50;;;10.50;73.50;;;;;;5277563;23;20186;-54
2022/04/30 01:56:18;;;;;;;15.80;8.47;;;10.40;73.70;;;;;;5225092;28;20436;-53
2022/04/30 01:58:48;;;;;;;15.07;8.40;;;10.40;72.00;;;;;;5228711;28;20538;-54
2022/04/30 02:01:18;;;;;;;10.63;7.77;;;10.40;73.20;;;;;;5236559;28;20184;-54
2022/04/30 02:03:49;;;;;;;20.53;7.37;;;10.30;73.80;;;;;;5241266;28;20202;-55
2022/04/30 02:06:21;;;;;;;16.83;6.87;;;10.30;73.50;;;;;;5252530;28;20187;-55
2022/04/30 02:08:52;;;;;;;16.10;7.53;;;10.30;73.70;;;;;;5261969;28;20240;-54
2022/04/30 02:11:23;;;;;;;10.00;5.33;;;10.30;73.80;;;;;;5262340;28;20460;-54
2022/04/30 02:13:58;;;;;;;20.13;6.43;;;10.20;75.30;;;;;;5263279;28;20510;-54
2022/04/30 02:16:31;;;;;;;11.23;5.10;;;10.20;76.10;;;;;;5257803;28;20434;-54
2022/04/30 02:19:03;;;;;;;10.73;5.63;;;10.20;76.10;;;;;;5237311;28;20477;-54
2022/04/30 02:21:35;;;;;;;6.80;5.63;;;10.30;78.00;;;;;;5261577;28;20440;-53
2022/04/30 02:24:07;;;;;;;8.73;5.10;;;10.30;77.70;;;;;;5243749;28;20448;-54
2022/04/30 02:26:38;;;;;;;9.33;4.80;;;10.30;77.40;;;;;;5257315;28;20439;-54
2022/04/30 02:29:10;;;;;;;7.33;4.40;;;10.20;77.20;;;;;;5246748;28;20427;-54
2022/04/30 02:31:40;;;;;;;7.87;4.73;;;10.10;77.70;;;;;;5262692;28;20189;-54
2022/04/30 02:34:11;;;;;;;6.87;4.87;;;10.10;79.30;;;;;;5260382;28;21505;-53
2022/04/30 02:36:41;;;;;;;7.27;4.23;;;10.00;80.40;;;;;;5261354;28;20624;-53
2022/04/30 02:39:12;;;;;;;8.73;5.47;;;10.00;81.40;;;;;;5245356;28;20185;-54
2022/04/30 02:41:42;;;;;;;13.23;4.97;;;9.90;83.90;;;;;;5260256;28;20182;-53
2022/04/30 02:44:13;;;;;;;8.23;4.27;;;9.80;85.50;;;;;;5243666;28;20233;-53
2022/04/30 02:46:43;;;;;;;6.47;4.63;;;9.80;87.20;;;;;;5258259;28;20189;-54
2022/04/30 02:49:16;;;;;;;7.23;4.20;;;9.70;87.70;;;;;;5239669;28;20177;-55
2022/04/30 02:51:51;;;;;;;9.20;5.20;;;9.70;89.80;;;;;;5246858;28;20169;-55
2022/04/30 02:54:21;;;;;;;12.50;4.30;;;9.60;90.00;;;;;;5235839;28;20451;-54
2022/04/30 02:56:52;;;;;;;5.30;4.17;;;9.60;90.30;;;;;;5260729;28;20443;-53
2022/04/30 03:02:11;;;;;;;7.77;4.10;;;9.50;91.00;;;;;;5256506;28;20220;-54
2022/04/30 03:04:42;;;;;;;9.90;4.00;;;9.40;91.30;;;;;;5260905;28;20546;-53
2022/04/30 03:07:12;;;;;;;9.03;4.97;;;9.40;91.50;;;;;;5261531;28;20330;-53
2022/04/30 03:09:43;;;;;;;12.87;4.33;;;9.40;92.00;;;;;;5265668;28;20189;-53
2022/04/30 03:12:14;;;;;;;13.30;4.67;;;9.40;92.60;;;;;;5259299;28;20174;-54
2022/04/30 03:14:45;;;;;;;12.37;3.73;;;9.40;93.20;;;;;;5241393;28;20202;-55
2022/04/30 03:22:54;;;;;;;6.13;4.30;;;9.30;93.80;;;;;;5259173;28;20454;-53
2022/04/30 03:25:24;;;;;;;6.47;4.27;;;9.30;94.30;;;;;;5242180;28;20483;-53
2022/04/30 03:27:55;;;;;;;5.20;4.10;;;9.20;94.30;;;;;;5260495;28;20198;-54
2022/04/30 03:30:25;;;;;;;6.67;4.03;;;9.20;94.90;;;;;;5259277;28;20213;-54
2022/04/30 03:32:56;;;;;;;8.20;4.13;;;9.20;95.20;;;;;;5246143;28;20637;-54
2022/04/30 03:35:27;;;;;;;6.03;3.83;;;9.30;94.80;;;;;;5241415;28;20288;-55
2022/04/30 03:37:57;;;;;;;4.37;3.00;;;9.30;94.80;;;;;;5256325;28;20529;-54
2022/04/30 03:40:27;;;;;;;9.20;3.73;;;9.30;94.50;;;;;;5244318;28;20582;-53
2022/04/30 03:42:58;;;;;;;5.20;4.20;;;9.30;94.10;;;;;;5258727;28;20182;-54
2022/04/30 03:45:29;;;;;;;5.70;4.23;;;9.30;93.80;;;;;;5254057;28;20259;-55
2022/04/30 03:47:59;;;;;;;7.60;3.80;;;9.30;93.90;;;;;;5254218;28;20214;-54
2022/04/30 03:50:30;;;;;;;7.53;4.33;;;9.30;93.90;;;;;;5259792;28;20231;-55
2022/04/30 03:53:01;;;;;;;2.97;2.77;;;9.30;93.80;;;;;;5254717;28;20235;-53
2022/04/30 03:55:31;;;;;;;3.53;3.23;;;9.30;93.80;;;;;;5230910;28;20244;-53
2022/04/30 03:58:02;;;;;;;8.43;3.53;;;9.30;93.70;;;;;;5255263;28;20209;-54
2022/04/30 04:00:33;;;;;;;3.27;3.07;;;9.30;94.20;;;;;;5240300;28;20638;-54
2022/04/30 04:03:04;;;;;;;5.00;3.10;;;9.40;93.30;;;;;;5243893;28;20571;-52
2022/04/30 04:05:34;;;;;;;3.00;2.90;;;9.40;93.10;;;;;;5239386;28;20475;-53
2022/04/30 04:08:12;;;;;;;6.93;3.20;;;9.40;92.90;;;;;;5259866;28;20237;-53
2022/04/30 04:10:42;;;;;;;6.03;3.13;;;9.40;92.60;;;;;;5259120;28;20200;-54
2022/04/30 04:18:56;;;;;;;8.27;3.30;;;9.50;92.00;;;;;;5261681;28;20444;-55
2022/04/30 04:21:26;;;;;;;4.33;3.83;;;9.50;92.30;;;;;;5259304;28;20850;-57
2022/04/30 04:26:46;;;;;;;10.77;3.43;;;9.60;92.70;;;;;;5257912;28;20606;-54
2022/04/30 04:29:17;;;;;;;6.77;3.23;;;9.60;91.90;;;;;;5255450;28;20440;-54
2022/04/30 04:31:47;;;;;;;6.33;3.30;;;9.60;92.40;;;;;;5244362;28;20235;-55
2022/04/30 04:34:18;;;;;;;6.23;3.40;;;9.70;92.50;;;;;;5259064;28;20237;-54
2022/04/30 04:36:48;;;;;;;5.93;2.93;;;9.60;92.80;;;;;;5260967;28;20283;-53
2022/04/30 04:39:19;;;;;;;3.70;3.40;;;9.60;92.10;;;;;;5242611;28;20177;-55
2022/04/30 04:41:49;;;;;;;3.73;3.40;;;9.70;91.20;;;;;;5247389;28;20304;-53
2022/04/30 04:44:21;;;;;;;7.33;3.30;;;9.70;90.60;;;;;;5254719;28;20206;-54
2022/04/30 04:46:51;;;;;;;3.93;3.33;;;9.70;89.60;;;;;;5258589;28;20178;-54
2022/04/30 04:49:22;;;;;;;5.03;3.07;;;9.80;88.60;;;;;;5254804;28;20485;-53
2022/04/30 04:51:53;;;;;;;5.47;3.50;;;9.80;89.20;;;;;;5238362;28;20322;-54
2022/04/30 04:54:23;;;;;;;9.40;4.83;;;9.80;89.80;;;;;;5253598;28;20202;-53
2022/04/30 04:56:54;;;;;;;6.57;4.37;;;9.70;90.10;;;;;;5262978;28;20192;-55
2022/04/30 04:59:24;;;;;;;6.77;4.20;;;9.70;90.50;;;;;;5260237;28;20178;-54
2022/04/30 05:01:55;;;;;;;12.47;4.50;;;9.80;91.20;;;;;;5254557;28;20209;-56
2022/04/30 05:04:25;;;;;;;5.53;5.03;;;9.80;91.40;;;;;;5248129;28;20209;-54
2022/04/30 05:06:57;;;;;;;17.10;5.80;;;9.80;91.20;;;;;;5244533;28;20270;-54
2022/04/30 05:09:28;;;;;;;10.77;5.20;;;9.80;91.20;;;;;;5261926;28;20175;-54
2022/04/30 05:12:01;;;;;;;7.60;5.03;;;9.90;91.10;;;;;;5247917;28;20444;-55
2022/04/30 05:14:32;;;;;;;13.00;5.50;;;9.90;90.50;;;;;;5264843;28;20281;-55
2022/04/30 05:17:04;;;;;;;11.23;5.77;;;9.90;90.10;;;;;;5263214;28;20611;-53
2022/04/30 05:19:35;;;;;;;10.30;5.90;;;9.90;89.80;;;;;;5261586;28;20940;-55
2022/04/30 05:22:06;;;;;;;9.30;5.60;;;10.00;88.90;;;;;;5247513;28;20530;-54
2022/04/30 05:24:36;;;;;;;9.57;6.13;;;10.00;88.10;;;;;;5243304;28;20202;-55
2022/04/30 05:27:08;;;;;;;5.17;4.47;;;10.10;88.50;;;;;;5242320;28;20572;-56
2022/04/30 05:29:39;;;;;;;10.33;5.50;;;10.30;86.90;;;;;;5262569;28;20170;-54
2022/04/30 05:32:09;;;;;;;14.43;5.70;;;10.50;85.50;;;;;;5245064;28;20458;-55
2022/04/30 05:34:40;;;;;;;4.53;3.70;;;10.60;83.90;;;;;;5259053;28;20213;-53
2022/04/30 05:37:11;;;;;;;4.00;3.70;;;10.80;82.40;;;;;;5263680;28;20278;-54
2022/04/30 05:39:42;;;;;;;5.20;4.10;;;11.00;80.60;;;;;;5248032;28;20571;-53
2022/04/30 05:42:14;;;;;;;4.07;3.77;;;11.20;77.80;;;;;;5266331;28;20522;-55
2022/04/30 05:44:44;;;;;;;6.43;3.83;;;11.40;76.00;;;;;;5262642;28;20668;-56
2022/04/30 05:47:16;;;;;;;7.63;5.23;;;11.70;73.50;;;;;;5257697;28;20559;-53
2022/04/30 05:49:47;;;;;;;5.87;4.73;;;11.80;71.70;;;;;;5257911;28;20189;-55
2022/04/30 05:52:19;;;;;;;10.00;5.47;;;12.10;70.40;;;;;;5242636;28;20428;-57
2022/04/30 05:54:49;;;;;;;7.13;4.03;;;12.20;67.40;;;;;;5255593;28;20205;-54
2022/04/30 05:57:20;;;;;;;7.20;4.47;;;12.40;67.00;;;;;;5268585;28;20419;-54
2022/04/30 05:59:50;;;;;;;7.30;4.00;;;12.60;66.30;;;;;;5268431;28;20197;-54
2022/04/30 06:02:22;;;;;;;6.13;3.97;;;13.00;65.20;;;;;;5267874;28;20600;-58
2022/04/30 06:04:52;;;;;;;6.27;4.07;;;13.40;63.40;;;;;;5262645;28;20206;-54
2022/04/30 06:07:23;;;;;;;8.40;4.10;;;14.40;60.60;;;;;;5241792;28;20451;-55
2022/04/30 06:09:53;;;;;;;7.83;4.37;;;15.10;57.60;;;;;;5241733;28;20184;-56
2022/04/30 06:12:24;;;;;;;7.53;3.83;;;15.70;54.00;;;;;;5257920;28;20189;-56
2022/04/30 06:14:54;;;;;;;6.83;4.70;;;16.50;51.10;;;;;;5259247;28;20198;-54
2022/04/30 06:17:25;;;;;;;8.33;4.60;;;16.70;49.10;;;;;;5264533;28;20262;-54
2022/04/30 06:19:55;;;;;;;9.73;4.47;;;16.70;47.80;;;;;;5257474;28;20211;-55
2022/04/30 06:22:26;;;;;;;8.70;4.50;;;16.60;48.10;;;;;;5244826;28;20717;-55
2022/04/30 06:24:57;;;;;;;6.70;4.60;;;16.40;48.10;;;;;;5253579;28;20204;-55
2022/04/30 06:27:27;;;;;;;7.37;4.00;;;16.30;48.20;;;;;;5242572;28;20205;-55
2022/04/30 06:29:59;;;;;;;9.77;4.43;;;16.20;49.00;;;;;;5269085;28;20174;-54
2022/04/30 06:32:29;;;;;;;7.30;4.20;;;16.10;48.70;;;;;;5256770;28;20167;-54
2022/04/30 06:35:02;;;;;;;4.90;4.47;;;15.90;48.30;;;;;;5258061;28;20456;-54
2022/04/30 06:37:32;;;;;;;6.83;4.80;;;15.80;48.90;;;;;;5264076;28;20253;-54
2022/04/30 06:40:05;;;;;;;6.50;3.60;;;15.60;49.20;;;;;;5258074;28;20954;-55
2022/04/30 06:42:42;;;;;;;13.67;4.30;;;15.50;49.30;;;;;;5243876;28;20251;-53
2022/04/30 06:45:13;;;;;;;4.43;3.60;;;15.30;49.40;;;;;;5239564;28;20548;-54
2022/04/30 06:47:44;;;;;;;5.10;3.70;;;15.00;49.50;;;;;;5250190;28;20452;-54
2022/04/30 06:50:14;;;;;;;7.30;4.07;;;14.40;50.40;;;;;;5243724;28;20474;-54
2022/04/30 06:58:41;;;;;;;13.63;4.23;;;13.00;55.20;;;;;;5257878;28;20813;-54
2022/04/30 07:04:01;;;;;;;9.20;4.70;;;13.00;56.80;;;;;;5254610;28;20470;-55
2022/04/30 07:06:35;;;;;;;16.17;5.17;;;13.20;56.80;;;;;;5241936;28;20427;-57
2022/04/30 07:09:06;;;;;;;10.33;3.83;;;13.30;56.70;;;;;;5247411;28;20463;-54
2022/04/30 07:11:37;;;;;;;5.27;3.80;;;13.70;56.30;;;;;;5238494;28;20446;-55
2022/04/30 07:14:08;;;;;;;13.07;4.63;;;14.40;55.20;;;;;;5239072;28;21055;-53
2022/04/30 07:16:39;;;;;;;9.60;4.50;;;14.80;53.20;;;;;;5256977;28;20206;-55
2022/04/30 07:19:09;;;;;;;12.30;3.83;;;16.00;52.30;;;;;;5239873;28;20441;-53
2022/04/30 07:21:39;;;;;;;6.70;3.50;;;18.00;47.50;;;;;;5253325;28;20190;-56
2022/04/30 07:24:10;;;;;;;9.03;3.67;;;19.90;44.40;;;;;;5242097;28;20308;-55
2022/04/30 07:26:41;;;;;;;6.80;4.53;;;20.70;39.30;;;;;;5243130;28;20269;-56
2022/04/30 07:29:11;;;;;;;8.90;3.73;;;20.20;39.60;;;;;;5262386;28;20301;-54
2022/04/30 07:31:42;;;;;;;11.13;4.40;;;19.90;39.40;;;;;;5236848;28;20255;-55
2022/04/30 07:34:12;;;;;;;7.20;3.70;;;19.00;41.00;;;;;;5259594;28;20234;-56
2022/04/30 07:36:43;;;;;;;6.27;3.60;;;18.10;42.40;;;;;;5241097;28;20520;-55
2022/04/30 07:39:14;;;;;;;5.33;3.80;;;17.50;43.60;;;;;;5239455;28;20297;-56
2022/04/30 07:41:44;;;;;;;11.67;3.87;;;17.20;45.00;;;;;;5256640;28;20264;-55
2022/04/30 07:44:16;;;;;;;6.53;4.03;;;17.40;45.20;;;;;;5258290;28;20559;-57
2022/04/30 07:46:47;;;;;;;2.67;2.43;;;17.60;44.50;;;;;;5240317;28;20671;-54
2022/04/30 07:49:17;;;;;;;6.50;3.67;;;17.60;44.00;;;;;;5239716;28;20459;-54
2022/04/30 07:51:55;;;;;;;4.80;3.53;;;17.60;43.80;;;;;;5259662;28;20625;-55
2022/04/30 07:54:26;;;;;;;3.93;3.03;;;17.30;44.30;;;;;;5236419;23;20277;-57
2022/04/30 07:56:59;;;;;;;4.37;3.17;;;17.50;45.10;;;;;;5182269;28;20431;-46
2022/04/30 07:59:30;;;;;;;4.93;2.80;;;18.00;44.40;;;;;;5182164;28;20441;-46
2022/04/30 08:02:01;;;;;;;3.70;3.50;;;18.20;43.80;;;;;;5179142;28;20419;-46
2022/04/30 08:04:31;;;;;;;3.53;3.23;;;18.40;43.60;;;;;;5172108;28;20200;-47
2022/04/30 08:07:02;;;;;;;4.00;3.60;;;18.30;43.00;;;;;;5176326;28;20642;-49
2022/04/30 08:09:32;;;;;;;5.10;3.53;;;18.20;43.40;;;;;;5178512;28;20711;-57
2022/04/30 08:12:03;;;;;;;6.47;3.30;;;18.10;43.70;;;;;;5194181;28;21227;-48
2022/04/30 08:14:34;;;;;;;5.23;3.33;;;18.20;43.80;;;;;;5166885;28;20206;-47
2022/04/30 08:17:05;;;;;;;4.30;3.43;;;18.00;44.30;;;;;;5198023;28;20469;-52
2022/04/30 08:19:36;;;;;;;3.73;3.43;;;18.00;44.80;;;;;;5196254;28;20176;-48
2022/04/30 08:22:06;;;;;;;4.63;4.20;;;18.50;44.60;;;;;;5177250;28;20795;-48
2022/04/30 08:24:37;;;;;;;4.87;3.47;;;18.90;44.00;;;;;;5182688;28;20202;-51
2022/04/30 08:27:07;;;;;;;8.10;3.57;;;19.10;43.30;;;;;;5180329;28;20202;-51
2022/04/30 08:29:38;;;;;;;5.50;2.90;;;19.90;41.40;;;;;;5176495;28;20183;-48
2022/04/30 08:32:08;;;;;;;12.67;3.30;;;20.40;40.10;;;;;;5199473;28;20184;-50
2022/04/30 08:34:39;;;;;;;2.90;2.70;;;20.00;39.20;;;;;;5165119;28;20212;-48
2022/04/30 08:37:10;;;;;;;3.30;3.00;;;20.10;39.80;;;;;;5192820;28;20187;-46
2022/04/30 08:39:41;;;;;;;4.30;3.33;;;20.10;38.20;;;;;;5198706;28;20196;-48
2022/04/30 08:42:15;;;;;;;4.47;2.50;;;19.80;38.80;;;;;;5195931;28;20188;-50
2022/04/30 08:44:45;;;;;;;15.03;3.57;;;19.60;39.80;;;;;;5174120;28;20243;-48
2022/04/30 08:47:16;;;;;;;4.73;2.90;;;19.40;39.80;;;;;;5199928;28;20842;-49
2022/04/30 08:49:48;;;;;;;4.67;2.50;;;19.20;40.10;;;;;;5199273;28;20180;-49
2022/04/30 08:52:19;;;;;;;4.10;2.10;;;18.80;40.50;;;;;;5183677;28;20249;-49
2022/04/30 08:54:49;;;;;;;3.40;3.20;;;18.50;41.40;;;;;;5198662;28;20987;-51
2022/04/30 08:57:20;;;;;;;2.93;2.73;;;18.20;42.70;;;;;;5200653;28;20755;-51
2022/04/30 08:59:51;;;;;;;3.67;3.37;;;18.30;42.90;;;;;;5204467;28;20183;-52
2022/04/30 09:02:22;;;;;;;5.07;2.27;;;18.40;42.10;;;;;;5170747;28;20939;-50
2022/04/30 09:04:54;;;;;;;6.13;3.23;;;18.30;42.20;;;;;;5186627;28;20465;-50
2022/04/30 09:07:26;;;;;;;3.90;2.80;;;18.40;42.60;;;;;;5185294;28;20210;-51
2022/04/30 09:10:00;;;;;;;5.03;3.47;;;18.20;42.00;;;;;;5184888;28;20426;-52
2022/04/30 09:12:33;;;;;;;4.77;2.77;;;18.10;42.50;;;;;;5176458;28;20535;-51
2022/04/30 09:15:14;;;;;;;4.50;2.90;;;17.90;42.10;;;;;;5177937;28;21029;-52
2022/04/30 09:17:58;;;;;;;3.97;3.00;;;18.00;42.40;;;;;;5199785;28;20518;-52
2022/04/30 09:20:30;;;;;;;3.73;3.00;;;17.90;42.80;;;;;;5189444;28;20585;-52
2022/04/30 09:23:01;;;;;;;3.47;3.20;;;17.90;43.10;;;;;;5201031;28;20442;-50
2022/04/30 09:25:32;;;;;;;10.20;3.40;;;18.00;43.50;;;;;;5198247;28;20971;-53
2022/04/30 09:28:03;;;;;;;5.40;3.50;;;18.30;43.50;;;;;;5199908;28;20268;-52
2022/04/30 09:30:34;;;;;;;4.43;3.20;;;18.50;42.70;;;;;;5200013;28;20528;-53
2022/04/30 09:33:06;;;;;;;6.07;3.37;;;18.70;42.60;;;;;;5185387;28;20438;-53
2022/04/30 09:38:36;;;;;;;5.60;3.40;;;18.60;42.00;;;;;;5193582;28;20974;-53
2022/04/30 09:41:08;;;;;;;3.03;2.47;;;18.50;42.20;;;;;;5179584;28;20525;-49
2022/04/30 09:43:38;;;;;;;10.90;3.50;;;18.40;43.00;;;;;;5181639;28;24048;-58
2022/04/30 09:46:09;;;;;;;5.20;3.40;;;18.40;42.90;;;;;;5181687;28;20466;-48
2022/04/30 09:54:17;;;;;;;3.27;3.00;;;18.30;42.00;;;;;;5201615;28;20531;-47
2022/04/30 09:56:51;;;;;;;5.57;3.17;;;18.20;42.10;;;;;;5188273;28;20875;-49
2022/04/30 09:59:25;;;;;;;3.50;3.30;;;18.30;42.10;;;;;;5203708;28;20187;-49
2022/04/30 10:01:55;;;;;;;7.30;3.60;;;18.60;41.40;;;;;;5205739;28;20461;-46
2022/04/30 10:04:27;;;;;;;3.17;2.90;;;18.60;40.10;;;;;;5204307;28;20458;-47
2022/04/30 10:07:00;;;;;;;4.00;3.20;;;18.60;40.20;;;;;;5187328;28;20183;-46
2022/04/30 10:09:36;;;;;;;4.83;3.57;;;18.50;40.40;;;;;;5208152;28;20793;-48
2022/04/30 10:12:33;;;;;;;5.10;2.70;;;18.60;41.20;;;;;;5204348;28;20821;-52
2022/04/30 10:15:44;;;;;;;7.13;2.97;;;18.30;41.10;;;;;;5186217;28;20470;-51
2022/04/30 10:18:17;;;;;;;7.60;3.60;;;18.20;41.70;;;;;;5203508;28;20446;-52
2022/04/30 10:20:52;;;;;;;2.30;2.30;;;18.10;41.50;;;;;;5195268;28;20469;-47
2022/04/30 10:23:24;;;;;;;5.13;3.60;;;18.20;42.40;;;;;;5184901;28;20476;-50
2022/04/30 10:25:54;;;;;;;15.70;3.70;;;18.20;42.20;;;;;;5187594;28;20462;-47
2022/04/30 10:28:25;;;;;;;10.70;4.10;;;18.40;42.30;;;;;;5205440;28;20463;-50
2022/04/30 10:31:00;;;;;;;6.50;4.33;;;18.70;41.70;;;;;;5189305;28;20199;-48
2022/04/30 10:33:32;;;;;;;6.77;3.03;;;18.70;41.20;;;;;;5185513;28;20214;-50
2022/04/30 10:36:07;;;;;;;6.87;5.23;;;18.70;41.10;;;;;;5199217;28;20854;-47
2022/04/30 10:38:39;;;;;;;3.90;3.33;;;18.50;40.20;;;;;;5188286;28;20449;-48
2022/04/30 10:41:11;;;;;;;2.93;2.73;;;18.70;40.60;;;;;;5187766;28;20524;-46
2022/04/30 10:43:42;;;;;;;5.63;3.03;;;18.60;41.40;;;;;;5203020;28;20453;-47
2022/04/30 10:46:13;;;;;;;3.97;3.23;;;18.70;42.40;;;;;;5187075;28;20545;-52
2022/04/30 10:48:43;;;;;;;5.80;3.73;;;18.80;41.20;;;;;;5190271;28;20474;-51
2022/04/30 10:51:16;;;;;;;3.73;2.67;;;18.80;41.10;;;;;;5199671;28;20249;-47
2022/04/30 10:53:47;;;;;;;2.90;2.70;;;18.90;40.70;;;;;;5201166;28;20191;-50
2022/04/30 10:56:17;;;;;;;5.97;3.50;;;19.00;40.00;;;;;;5198883;28;20871;-46
2022/04/30 10:58:51;;;;;;;3.50;3.20;;;19.20;39.50;;;;;;5179337;28;20445;-46
2022/04/30 11:01:22;;;;;;;5.70;3.30;;;19.20;39.20;;;;;;5204970;28;20183;-48
2022/04/30 11:03:53;;;;;;;5.70;3.10;;;19.00;38.30;;;;;;5205765;28;20738;-49
2022/04/30 11:06:25;;;;;;;2.63;2.40;;;19.00;38.70;;;;;;5200625;28;20278;-48
2022/04/30 11:09:07;;;;;;;5.03;3.63;;;18.90;39.10;;;;;;5196961;28;20207;-50
2022/04/30 11:11:37;;;;;;;3.90;3.50;;;18.80;39.10;;;;;;5185822;28;20449;-48
2022/04/30 11:14:10;;;;;;;5.30;3.03;;;18.40;39.20;;;;;;5204260;28;20833;-49
2022/04/30 11:16:45;;;;;;;4.37;3.83;;;18.30;40.10;;;;;;5203317;28;20188;-49
2022/04/30 11:19:18;;;;;;;3.23;2.93;;;18.40;40.80;;;;;;5188175;28;20533;-50
2022/04/30 11:21:53;;;;;;;4.60;3.37;;;18.70;39.80;;;;;;5202525;28;20426;-48
2022/04/30 11:24:29;;;;;;;3.50;3.00;;;18.80;39.80;;;;;;5200828;28;20563;-52
2022/04/30 11:27:03;;;;;;;3.90;2.53;;;19.10;39.50;;;;;;5201193;28;21337;-51
2022/04/30 11:29:37;;;;;;;3.57;3.13;;;19.40;37.90;;;;;;5181457;28;20443;-52
2022/04/30 11:32:08;;;;;;;8.73;3.93;;;19.40;37.70;;;;;;5177223;28;20517;-52
2022/04/30 11:34:39;;;;;;;5.43;4.00;;;19.50;36.90;;;;;;5181491;28;20558;-53
2022/04/30 11:37:09;;;;;;;7.53;3.00;;;19.60;37.70;;;;;;5180614;28;20202;-50
2022/04/30 11:39:40;;;;;;;2.37;2.13;;;19.50;38.40;;;;;;5199296;28;20433;-51
2022/04/30 11:42:11;;;;;;;2.60;2.43;;;19.20;38.90;;;;;;5178365;28;20564;-53
2022/04/30 11:44:43;;;;;;;3.60;3.37;;;19.20;39.00;;;;;;5179614;28;20215;-53
2022/04/30 11:47:13;;;;;;;10.97;3.10;;;19.40;39.10;;;;;;5197478;28;20183;-51
2022/04/30 11:49:45;;;;;;;6.73;3.40;;;19.50;38.80;;;;;;5199278;28;20937;-52
2022/04/30 11:52:16;;;;;;;7.70;2.83;;;19.40;38.10;;;;;;5191001;28;20183;-51
2022/04/30 11:54:46;;;;;;;6.00;3.20;;;19.30;38.30;;;;;;5200002;28;20481;-50
2022/04/30 11:57:18;;;;;;;9.17;3.13;;;19.40;38.50;;;;;;5181576;28;20509;-51
2022/04/30 11:59:49;;;;;;;4.50;3.43;;;19.10;37.70;;;;;;5195624;28;20446;-52
2022/04/30 12:02:20;;;;;;;3.50;3.30;;;19.00;38.00;;;;;;5196470;28;20211;-49
2022/04/30 12:04:52;;;;;;;9.60;4.07;;;18.90;38.00;;;;;;5200743;28;20226;-48
2022/04/30 12:07:22;;;;;;;6.50;3.20;;;18.50;37.80;;;;;;5199810;28;20465;-49
2022/04/30 12:09:55;;;;;;;5.60;3.60;;;18.30;38.50;;;;;;5196654;28;20468;-48
2022/04/30 12:12:26;;;;;;;5.50;3.73;;;18.20;38.90;;;;;;5199884;28;20211;-49
2022/04/30 12:14:57;;;;;;;2.40;2.30;;;18.50;38.20;;;;;;5180507;28;20505;-48
2022/04/30 12:17:32;;;;;;;4.80;2.70;;;18.70;37.80;;;;;;5195933;28;20694;-49
2022/04/30 12:26:06;;;;;;;4.30;3.13;;;19.10;36.60;;;;;;5195452;28;20517;-48
2022/04/30 12:28:50;;;;;;;5.63;3.00;;;19.30;36.60;;;;;;5200830;28;20564;-51
2022/04/30 12:31:20;;;;;;;3.63;3.27;;;19.60;36.20;;;;;;5199629;28;20910;-52
2022/04/30 12:33:51;;;;;;;9.50;4.33;;;20.00;35.80;;;;;;5201176;28;20456;-49
2022/04/30 12:36:23;;;;;;;8.13;3.40;;;20.40;35.00;;;;;;5192081;28;20180;-48
2022/04/30 12:38:55;;;;;;;3.27;3.10;;;20.70;34.80;;;;;;5177740;28;20195;-50
2022/04/30 12:41:26;;;;;;;3.37;2.90;;;20.90;34.40;;;;;;5202176;28;20802;-50
2022/04/30 12:43:56;;;;;;;4.80;3.37;;;21.10;33.80;;;;;;5197044;28;20450;-48
2022/04/30 12:46:27;;;;;;;4.00;3.33;;;21.10;33.20;;;;;;5184277;28;20242;-49
2022/04/30 12:48:58;;;;;;;3.37;3.10;;;21.10;32.50;;;;;;5183872;28;20830;-48
2022/04/30 12:51:28;;;;;;;4.77;2.77;;;20.70;32.70;;;;;;5188846;28;20198;-48
2022/04/30 12:53:59;;;;;;;17.53;3.87;;;20.70;33.50;;;;;;5189683;28;20766;-51
2022/04/30 12:56:30;;;;;;;3.00;2.80;;;20.70;32.90;;;;;;5209038;28;20547;-45
2022/04/30 12:59:01;;;;;;;9.23;5.20;;;20.60;32.00;;;;;;5185154;28;20180;-46
2022/04/30 13:01:36;;;;;;;10.07;3.70;;;20.70;31.70;;;;;;5197552;28;20427;-48
2022/04/30 13:04:08;;;;;;;4.47;3.30;;;20.40;32.00;;;;;;5188056;28;20694;-47
2022/04/30 13:06:40;;;;;;;3.37;3.17;;;20.50;32.40;;;;;;5203747;28;20445;-47
2022/04/30 13:14:50;;;;;;;3.00;2.63;;;20.90;31.10;;;;;;5207155;28;20446;-51
2022/04/30 13:17:23;;;;;;;3.80;2.90;;;21.00;31.20;;;;;;5193773;28;20465;-51
2022/04/30 13:19:54;;;;;;;2.50;2.30;;;21.20;31.00;;;;;;5197996;28;20942;-47
2022/04/30 13:22:24;;;;;;;3.33;2.83;;;21.20;31.20;;;;;;5184207;28;20533;-49
2022/04/30 13:24:55;;;;;;;5.07;3.40;;;21.30;30.70;;;;;;5182968;28;20267;-47
2022/04/30 13:27:25;;;;;;;9.80;3.20;;;20.90;29.80;;;;;;5185981;28;20199;-48
2022/04/30 13:29:56;;;;;;;2.93;2.77;;;20.60;30.50;;;;;;5203880;28;20179;-48
2022/04/30 13:32:28;;;;;;;6.80;3.10;;;20.50;30.80;;;;;;5199090;28;20180;-49
2022/04/30 13:34:58;;;;;;;6.50;3.20;;;20.50;30.90;;;;;;5202231;28;20227;-49
2022/04/30 13:37:29;;;;;;;3.47;3.33;;;20.30;30.80;;;;;;5184665;28;20521;-53
2022/04/30 13:39:59;;;;;;;3.77;3.10;;;20.20;30.90;;;;;;5178044;28;21122;-52
2022/04/30 13:42:30;;;;;;;4.50;4.10;;;20.30;31.40;;;;;;5193255;28;20246;-53
2022/04/30 13:45:00;;;;;;;6.33;3.23;;;20.50;31.10;;;;;;5183948;28;20211;-52
2022/04/30 13:47:32;;;;;;;7.87;4.13;;;20.60;31.30;;;;;;5181551;28;20286;-53
2022/04/30 13:50:06;;;;;;;3.70;3.47;;;20.70;30.60;;;;;;5182612;28;20323;-52
2022/04/30 13:52:38;;;;;;;5.27;3.40;;;20.40;31.00;;;;;;5198807;28;20430;-50
2022/04/30 13:55:09;;;;;;;5.97;3.27;;;20.40;31.40;;;;;;5202902;28;20466;-49
2022/04/30 13:57:40;;;;;;;3.40;3.20;;;20.50;31.40;;;;;;5198785;28;20476;-53
2022/04/30 14:00:15;;;;;;;6.00;3.30;;;20.60;30.90;;;;;;5196879;28;20180;-52
2022/04/30 14:02:46;;;;;;;2.97;2.77;;;20.60;30.80;;;;;;5184311;28;20191;-53